WetterOnline ( http://www.wetteronline.de )

Wetter aktuell PLZ Bereich 09548

Aktuelles Wetter: Chemnitz (420m)

6-stündlich | Neueste Meldungen
Ortszeit Temperatur Wetter
Mo, 15.10. 14:00 19.9° C wolkig
Mo, 15.10. 8:00 12.7° C wolkenlos
Mo, 15.10. 2:00 14.8° C wolkenlos
So, 14.10. 20:00 18.5° C fast wolkenlos
So, 14.10. 14:00 19.5° C wolkenlos
So, 14.10. 8:00 12.7° C wolkenlos
So, 14.10. 2:00 14.1° C wolkenlos
Sa, 13.10. 20:00 15.1° C wolkenlos
Ortszeit Temperatur Wetter
Mo, 15.10. 14:00 19.9° C wolkig
Mo, 15.10. 13:50 19.9° C wolkig
Mo, 15.10. 13:40 20.8° C wolkig
Mo, 15.10. 13:30 19.9° C leicht bewölkt
Mo, 15.10. 13:20 19.9° C leicht bewölkt
Mo, 15.10. 13:10 20.4° C wolkig
Mo, 15.10. 13:00 19.2° C wolkig
Mo, 15.10. 12:30 19.0° C wolkig
Mo, 15.10. 12:00 18.9° C leicht bewölkt
Mo, 15.10. 11:30 18.6° C wolkenlos
Mo, 15.10. 11:00 18.0° C wolkenlos
Ortszeit Relative Feuchte Sichtweite
Mo, 15.10. 14:00 35% 35 km
Mo, 15.10. 8:00 52% 35 km
Mo, 15.10. 2:00 49% 30 km
So, 14.10. 20:00 45% 23 km
So, 14.10. 14:00 41% 20 km
So, 14.10. 8:00 64% 18 km
So, 14.10. 2:00 63% 13 km
Sa, 13.10. 20:00 64% 11 km
Ortszeit Relative Feuchte Sichtweite
Mo, 15.10. 14:00 35% 35 km
Mo, 15.10. 13:50 35% -
Mo, 15.10. 13:40 34% -
Mo, 15.10. 13:30 36% 45 km
Mo, 15.10. 13:20 36% -
Mo, 15.10. 13:10 36% -
Mo, 15.10. 13:00 37% 29 km
Mo, 15.10. 12:30 38% 35 km
Mo, 15.10. 12:00 37% 26 km
Mo, 15.10. 11:30 39% 35 km
Mo, 15.10. 11:00 41% 30 km
Ortszeit Niederschlagsmenge Niederschlagsart
Mo, 15.10. 14:00 0.0 l/m2 in 6 Std. -
Mo, 15.10. 8:00 0.0 l/m2 in 12 Std. -
Mo, 15.10. 2:00 0.0 l/m2 in 6 Std. -
So, 14.10. 20:00 0.0 l/m2 in 12 Std. -
So, 14.10. 14:00 0.0 l/m2 in 6 Std. -
So, 14.10. 8:00 0.0 l/m2 in 12 Std. -
So, 14.10. 2:00 0.0 l/m2 in 6 Std. -
Sa, 13.10. 20:00 0.0 l/m2 in 12 Std. -
Ortszeit Niederschlagsmenge Niederschlagsart
Mo, 15.10. 14:00 0.0 l/m2 in 1 Std. -
Mo, 15.10. 13:50 keine Meldung -
Mo, 15.10. 13:40 keine Meldung -
Mo, 15.10. 13:30 0.0 l/m2 in 1 Std. -
Mo, 15.10. 13:20 keine Meldung -
Mo, 15.10. 13:10 keine Meldung -
Mo, 15.10. 13:00 0.0 l/m2 in 1 Std. -
Mo, 15.10. 12:30 0.0 l/m2 in 1 Std. -
Mo, 15.10. 12:00 0.0 l/m2 in 1 Std. -
Mo, 15.10. 11:30 0.0 l/m2 in 1 Std. -
Mo, 15.10. 11:00 0.0 l/m2 in 1 Std. -
Ortszeit Stärke Spitze Richtung
km/h Bft. km/h Grad Sektor
Mo, 15.10. 14:00 13 3 30 140° SO
Mo, 15.10. 8:00 4 1 36 100° O
Mo, 15.10. 2:00 13 3 31 150° SO
So, 14.10. 20:00 9 2 35 140° SO
So, 14.10. 14:00 13 3 39 150° SO
So, 14.10. 8:00 7 2 32 160° S
So, 14.10. 2:00 9 2 26 150° SO
Sa, 13.10. 20:00 6 1 30 100° O
Ortszeit Stärke Spitze Richtung
km/h Bft. km/h Grad Sektor
Mo, 15.10. 14:00 13 3 28 140° SO
Mo, 15.10. 13:50 13 3 - 140° SO
Mo, 15.10. 13:40 9 2 - 130° SO
Mo, 15.10. 13:30 11 2 26 150° SO
Mo, 15.10. 13:20 11 2 - 150° SO
Mo, 15.10. 13:10 9 2 - 130° SO
Mo, 15.10. 13:00 13 3 26 130° SO
Mo, 15.10. 12:30 11 2 25 130° SO
Mo, 15.10. 12:00 9 2 20 130° SO
Mo, 15.10. 11:30 6 1 17 160° S
Mo, 15.10. 11:00 9 2 30 180° S
Ortszeit Untergrenze Bedeckung Gattung
total tief tief mittel hoch
Mo, 15.10. 14:00 5100 m 6/8 3/8 - - -
Mo, 15.10. 8:00 - 0/8 0/8 - - -
Mo, 15.10. 2:00 - 0/8 0/8 - - -
So, 14.10. 20:00 2400 m 1/8 1/8 - - -
So, 14.10. 14:00 - 0/8 0/8 - - -
So, 14.10. 8:00 - 0/8 0/8 - - -
So, 14.10. 2:00 - 0/8 0/8 - - -
Sa, 13.10. 20:00 - 0/8 0/8 - - -
Ortszeit Bedeckungsgrad in Achtel und Wolkenuntergrenze
Mo, 15.10. 14:00 3(5100m) 5(7500m) 6(8400m)
Mo, 15.10. 13:50 3(5100m) 5(7500m) 6(8400m)
Mo, 15.10. 13:40 2(5100m) 4(7200m) 7(8400m)
Mo, 15.10. 13:30 3(6300m) 4(7500m) 5(8700m)
Mo, 15.10. 13:20 3(6300m) 4(7500m) 5(8700m)
Mo, 15.10. 13:10 1(5400m) 7(7200m) 7(7800m)
Mo, 15.10. 13:00 2(5400m) 7(6900m) 8(8700m)
Mo, 15.10. 12:30 1(6600m) 7(8400m) 7(8400m)
Mo, 15.10. 12:00 5(7200m) 7(7800m) 7(8400m)
Mo, 15.10. 11:30 3(6900m)
Mo, 15.10. 11:00 keine Wolken
Ortszeit Luftdruck NN (hPa) Tendenz (hPa in 3 Std.)
Mo, 15.10. 14:00 1015 + 0,1
Mo, 15.10. 8:00 1016 + 0,5
Mo, 15.10. 2:00 1014 - 0,6
So, 14.10. 20:00 1014 - 0,4
So, 14.10. 14:00 1015 - 0,2
So, 14.10. 8:00 1017 - 0,9
So, 14.10. 2:00 1019 - 1,3
Sa, 13.10. 20:00 1021 - 1,0
Ortszeit Luftdruck NN (hPa) Tendenz (hPa in 3 Std.)
Mo, 15.10. 14:00 1015 + 0,1
Mo, 15.10. 13:50 1015 keine Meldung
Mo, 15.10. 13:40 1015 keine Meldung
Mo, 15.10. 13:30 1015 0,0
Mo, 15.10. 13:20 1015 keine Meldung
Mo, 15.10. 13:10 1015 keine Meldung
Mo, 15.10. 13:00 1015 0,0
Mo, 15.10. 12:30 1015 + 0,6
Mo, 15.10. 12:00 1015 + 0,5
Mo, 15.10. 11:30 1015 + 0,6
Mo, 15.10. 11:00 1015 + 0,5
Ortszeit Schneehöhe (cm)
Mo, 15.10. 14:00 0
Mo, 15.10. 8:00 0
Mo, 15.10. 2:00 0
So, 14.10. 20:00 0
So, 14.10. 14:00 0
So, 14.10. 8:00 0
So, 14.10. 2:00 0
Sa, 13.10. 20:00 0
Ortszeit Schneehöhe (cm)
Mo, 15.10. 14:00 0
Mo, 15.10. 13:50 0
Mo, 15.10. 13:40 0
Mo, 15.10. 13:30 0
Mo, 15.10. 13:20 0
Mo, 15.10. 13:10 0
Mo, 15.10. 13:00 0
Mo, 15.10. 12:30 0
Mo, 15.10. 12:00 0
Mo, 15.10. 11:30 0
Mo, 15.10. 11:00 0
Link zu dieser Seite / Seite empfehlen

Das Wetter in ...